Time;durP1;ratioP1;P1;durP2;ratioP2;P2;SDS_P1;SDS_P2;PMS_P1;PMS_P2;Temp;Humidity;BMP_temperature;BMP_pressure;BME280_temperature;BME280_humidity;BME280_pressure;Samples;Min_cycle;Max_cycle;Signal;HPM_P1;HPM_P2
2021/01/11 00:00:54;;;;;;;40.67;15.13;;;;;;;2.47;100.00;101339.19;5029279;28;20382;-69
2021/01/11 00:03:20;;;;;;;38.30;14.27;;;;;;;2.49;100.00;101345.28;5032215;28;20029;-70
2021/01/11 00:05:45;;;;;;;52.30;17.63;;;;;;;2.47;100.00;101339.19;5031822;28;20045;-69
2021/01/11 00:08:11;;;;;;;39.83;14.73;;;;;;;2.50;100.00;101331.56;5027742;28;20032;-70
2021/01/11 00:10:36;;;;;;;37.97;13.43;;;;;;;2.52;100.00;101329.03;5017415;28;20446;-69
2021/01/11 00:13:03;;;;;;;47.87;16.57;;;;;;;2.50;100.00;101328.09;5029030;28;20029;-69
2021/01/11 00:15:28;;;;;;;42.47;16.47;;;;;;;2.53;100.00;101323.94;5023804;28;20053;-70
2021/01/11 00:17:54;;;;;;;35.33;13.10;;;;;;;2.57;100.00;101337.91;5023390;28;20342;-69
2021/01/11 00:20:19;;;;;;;32.77;13.27;;;;;;;2.59;100.00;101339.72;5027188;28;20546;-68
2021/01/11 00:22:45;;;;;;;33.03;12.50;;;;;;;2.56;100.00;101323.22;5029162;28;20021;-69
2021/01/11 00:25:11;;;;;;;38.40;13.87;;;;;;;2.54;100.00;101330.00;5029956;28;20021;-69
2021/01/11 00:27:37;;;;;;;40.97;14.07;;;;;;;2.57;100.00;101322.41;5028986;28;20019;-67
2021/01/11 00:30:05;;;;;;;36.97;15.47;;;;;;;2.58;100.00;101329.34;5031708;28;20617;-69
2021/01/11 00:32:38;;;;;;;37.50;15.47;;;;;;;2.58;100.00;101319.88;5028481;28;20025;-71
2021/01/11 00:35:05;;;;;;;32.00;13.20;;;;;;;2.60;100.00;101318.25;5029184;28;20287;-69
2021/01/11 00:37:30;;;;;;;34.17;13.27;;;;;;;2.63;100.00;101325.25;5016751;28;20319;-70
2021/01/11 00:39:56;;;;;;;33.93;13.27;;;;;;;2.63;100.00;101322.66;5030224;28;20276;-70
2021/01/11 00:42:21;;;;;;;28.90;12.37;;;;;;;2.60;100.00;101331.16;5029607;28;20037;-68
2021/01/11 00:44:47;;;;;;;28.00;10.87;;;;;;;2.62;100.00;101333.81;5029187;28;20029;-70
2021/01/11 00:47:12;;;;;;;29.67;12.73;;;;;;;2.65;100.00;101327.06;5028078;28;20037;-69
2021/01/11 00:49:39;;;;;;;35.47;12.60;;;;;;;2.60;100.00;101325.13;5028440;28;20029;-68
2021/01/11 00:52:05;;;;;;;31.57;12.30;;;;;;;2.58;100.00;101326.75;5029619;28;20037;-71
2021/01/11 00:54:30;;;;;;;29.40;10.97;;;;;;;2.62;100.00;101329.53;5021333;28;20294;-68
2021/01/11 00:56:56;;;;;;;27.23;11.00;;;;;;;2.62;100.00;101320.91;5026246;28;20029;-68
2021/01/11 00:59:21;;;;;;;25.97;11.93;;;;;;;2.62;100.00;101324.34;5030596;28;20037;-69
2021/01/11 01:01:50;;;;;;;34.90;14.53;;;;;;;2.60;100.00;101314.78;5012032;28;20405;-68
2021/01/11 01:04:17;;;;;;;26.60;11.13;;;;;;;2.59;100.00;101315.59;5029498;28;20059;-68
2021/01/11 01:06:42;;;;;;;38.97;15.07;;;;;;;2.56;100.00;101315.47;5017696;28;20283;-68
2021/01/11 01:09:08;;;;;;;27.17;12.00;;;;;;;2.59;100.00;101318.19;5023187;28;20295;-68
2021/01/11 01:11:37;;;;;;;26.13;11.27;;;;;;;2.57;100.00;101307.81;5010307;28;20493;-68
2021/01/11 01:14:02;;;;;;;30.23;11.87;;;;;;;2.54;100.00;101304.19;5023428;28;20040;-67
2021/01/11 01:16:28;;;;;;;38.13;14.80;;;;;;;2.54;100.00;101305.06;5026385;28;20281;-68
2021/01/11 01:18:56;;;;;;;34.20;13.43;;;;;;;2.54;100.00;101306.75;5018043;28;20022;-70
2021/01/11 01:21:22;;;;;;;40.30;15.33;;;;;;;2.52;100.00;101301.53;5014852;28;20281;-69
2021/01/11 01:23:47;;;;;;;27.73;11.03;;;;;;;2.51;100.00;101299.78;5048983;28;20284;-70
2021/01/11 01:26:13;;;;;;;35.80;13.60;;;;;;;2.56;100.00;101305.16;5015978;28;20035;-69
2021/01/11 01:28:38;;;;;;;38.00;15.20;;;;;;;2.54;100.00;101305.06;5023987;28;20480;-68
2021/01/11 01:31:04;;;;;;;42.23;15.27;;;;;;;2.51;100.00;101304.06;5011588;28;20036;-69
2021/01/11 01:33:29;;;;;;;35.20;14.03;;;;;;;2.55;100.00;101305.97;5021380;28;20025;-68
2021/01/11 01:35:54;;;;;;;31.00;12.20;;;;;;;2.55;100.00;101300.81;5022841;28;20025;-68
2021/01/11 01:38:20;;;;;;;37.67;14.23;;;;;;;2.54;100.00;101304.19;5021443;28;20571;-69
2021/01/11 01:40:46;;;;;;;23.70;10.07;;;;;;;2.51;100.00;101309.22;5017238;28;20025;-69
2021/01/11 01:43:14;;;;;;;35.03;13.87;;;;;;;2.53;100.00;101307.56;5018310;28;20083;-69
2021/01/11 01:45:40;;;;;;;33.90;13.77;;;;;;;2.52;100.00;101305.81;5013136;28;20600;-69
2021/01/11 01:48:07;;;;;;;39.37;15.87;;;;;;;2.49;100.00;101295.38;5026674;28;20829;-70
2021/01/11 01:50:33;;;;;;;27.97;12.03;;;;;;;2.54;100.00;101296.44;5016237;28;20289;-70
2021/01/11 01:52:58;;;;;;;36.33;14.23;;;;;;;2.52;100.00;101300.66;5011203;28;20325;-69
2021/01/11 01:55:24;;;;;;;32.07;11.07;;;;;;;2.52;100.00;101303.22;5010488;28;20671;-70
2021/01/11 01:57:52;;;;;;;33.27;13.77;;;;;;;2.51;100.00;101299.78;5010773;28;20026;-70
2021/01/11 02:00:19;;;;;;;38.23;14.43;;;;;;;2.52;100.00;101301.53;5012601;28;20552;-70
2021/01/11 02:02:44;;;;;;;37.73;14.10;;;;;;;2.52;100.00;101300.66;5012700;28;20276;-72
2021/01/11 02:05:10;;;;;;;34.70;12.37;;;;;;;2.51;100.00;101298.88;5013251;28;20288;-68
2021/01/11 02:07:47;;;;;;;40.80;14.03;;;;;;;2.48;100.00;101289.31;5023191;28;20026;-68
2021/01/11 02:10:36;;;;;;;35.70;13.07;;;;;;;2.49;100.00;101295.38;5016059;28;20032;-69
2021/01/11 02:13:25;;;;;;;39.03;14.37;;;;;;;2.49;100.00;101292.78;5020079;28;20358;-68
2021/01/11 02:16:23;;;;;;;41.63;15.13;;;;;;;2.46;100.00;101290.06;5011573;28;20719;-69
2021/01/11 02:19:03;;;;;;;35.80;12.50;;;;;;;2.47;100.00;101299.59;5012103;28;20338;-69
2021/01/11 02:21:51;;;;;;;38.10;14.60;;;;;;;2.47;100.00;101291.84;5020714;28;20351;-69
2021/01/11 02:24:53;;;;;;;45.83;14.70;;;;;;;2.46;100.00;101290.06;5023091;28;20303;-69
2021/01/11 02:27:31;;;;;;;37.45;13.00;;;;;;;2.47;100.00;101286.69;5017676;28;20277;-69
2021/01/11 02:30:13;;;;;;;27.57;9.67;;;;;;;2.47;100.00;101281.50;5019299;28;20303;-69
2021/01/11 02:32:49;;;;;;;41.53;13.70;;;;;;;2.47;100.00;101287.56;5023074;28;20652;-69
2021/01/11 02:35:17;;;;;;;24.37;10.47;;;;;;;2.48;100.00;101288.44;5012659;28;20160;-68
2021/01/11 02:37:43;;;;;;;45.07;15.57;;;;;;;2.45;100.00;101278.88;5032538;28;20264;-68
2021/01/11 02:40:10;;;;;;;36.47;11.93;;;;;;;2.46;100.00;101284.91;5029328;28;20338;-69
2021/01/11 02:42:36;;;;;;;47.73;15.63;;;;;;;2.42;100.00;101277.84;5020875;28;20030;-69
2021/01/11 02:45:05;;;;;;;39.50;13.27;;;;;;;2.43;100.00;101269.31;5013947;28;20709;-69
2021/01/11 02:47:52;;;;;;;43.80;14.87;;;;;;;2.45;100.00;101270.25;5026097;28;20767;-69
2021/01/11 02:50:22;;;;;;;34.50;11.60;;;;;;;2.45;100.00;101268.56;5016019;28;20659;-70
2021/01/11 02:53:04;;;;;;;32.07;10.80;;;;;;;2.47;100.00;101268.63;5021665;28;20648;-70
2021/01/11 02:55:53;;;;;;;45.47;14.32;;;;;;;2.46;100.00;101262.56;5016689;28;20279;-70
2021/01/11 02:58:40;;;;;;;48.77;15.53;;;;;;;2.45;100.00;101260.81;5018979;28;20106;-69
2021/01/11 03:01:09;;;;;;;39.07;13.67;;;;;;;2.47;100.00;101266.91;5020220;28;20283;-69
2021/01/11 03:03:35;;;;;;;43.33;14.73;;;;;;;2.43;100.00;101258.97;5021389;28;20283;-70
2021/01/11 03:06:02;;;;;;;46.20;14.83;;;;;;;2.46;100.00;101253.94;5032383;28;20742;-70
2021/01/11 03:08:27;;;;;;;51.40;15.63;;;;;;;2.45;100.00;101253.06;5031463;28;20276;-69
2021/01/11 03:10:53;;;;;;;44.13;15.67;;;;;;;2.45;100.00;101252.19;5031464;28;20333;-69
2021/01/11 03:13:19;;;;;;;40.73;14.00;;;;;;;2.45;100.00;101263.38;5020047;28;20034;-68
2021/01/11 03:15:45;;;;;;;42.37;15.17;;;;;;;2.46;100.00;101248.78;5014742;28;20036;-69
2021/01/11 03:18:10;;;;;;;36.57;14.43;;;;;;;2.49;100.00;101251.50;5021547;28;20292;-68
2021/01/11 03:20:36;;;;;;;37.37;14.63;;;;;;;2.47;100.00;101240.22;5027457;28;20103;-69
2021/01/11 03:23:01;;;;;;;44.53;14.90;;;;;;;2.49;100.00;101243.75;5024334;28;20124;-71
2021/01/11 03:25:27;;;;;;;32.30;12.50;;;;;;;2.53;100.00;101241.34;5027252;28;20055;-68
2021/01/11 03:27:52;;;;;;;33.90;12.70;;;;;;;2.50;100.00;101245.50;5015762;28;20484;-68
2021/01/11 03:30:18;;;;;;;45.13;13.37;;;;;;;2.50;100.00;101240.34;5027927;28;20076;-68
2021/01/11 03:32:44;;;;;;;42.67;14.47;;;;;;;2.49;100.00;101236.00;5019478;28;20038;-69
2021/01/11 03:35:10;;;;;;;26.97;11.43;;;;;;;2.49;100.00;101238.59;5013240;28;20307;-69
2021/01/11 03:37:35;;;;;;;44.37;15.13;;;;;;;2.50;100.00;101227.44;5022869;28;20030;-70
2021/01/11 03:40:01;;;;;;;43.83;14.70;;;;;;;2.48;100.00;101211.88;5021900;28;20492;-69
2021/01/11 03:42:26;;;;;;;39.80;13.80;;;;;;;2.49;100.00;101223.09;5013364;28;20030;-68
2021/01/11 03:44:51;;;;;;;43.53;14.80;;;;;;;2.47;100.00;101204.09;5018917;28;20075;-70
2021/01/11 03:47:19;;;;;;;26.13;10.07;;;;;;;2.51;100.00;101213.72;5015565;28;20029;-69
2021/01/11 03:49:45;;;;;;;39.73;12.80;;;;;;;2.49;100.00;101213.66;5018347;28;20028;-68
2021/01/11 03:52:10;;;;;;;40.73;14.13;;;;;;;2.49;100.00;101207.59;5016992;28;20292;-69
2021/01/11 03:54:35;;;;;;;39.33;15.10;;;;;;;2.47;100.00;101209.25;5016334;28;20440;-69
2021/01/11 03:57:01;;;;;;;33.67;12.77;;;;;;;2.49;100.00;101212.78;5018029;28;20034;-68
2021/01/11 03:59:26;;;;;;;41.77;15.37;;;;;;;2.48;100.00;101208.44;5012803;28;20065;-69
2021/01/11 04:01:52;;;;;;;39.63;14.17;;;;;;;2.48;100.00;101211.00;5014347;28;20054;-68
2021/01/11 04:04:18;;;;;;;47.33;15.00;;;;;;;2.46;100.00;101199.75;5018904;28;20540;-69
2021/01/11 04:06:44;;;;;;;46.87;15.83;;;;;;;2.45;100.00;101201.44;5026822;28;20380;-69
2021/01/11 04:09:10;;;;;;;40.10;13.13;;;;;;;2.45;100.00;101192.81;5026748;28;20381;-67
2021/01/11 04:11:35;;;;;;;39.93;14.60;;;;;;;2.42;100.00;101195.25;5012851;28;20485;-68
2021/01/11 04:14:01;;;;;;;34.00;11.97;;;;;;;2.43;100.00;101186.72;5027175;28;20284;-68
2021/01/11 04:16:26;;;;;;;42.40;14.77;;;;;;;2.41;100.00;101186.63;5023911;28;20036;-69
2021/01/11 04:18:52;;;;;;;36.17;13.13;;;;;;;2.42;100.00;101185.81;5012129;28;20397;-67
2021/01/11 04:21:17;;;;;;;36.57;14.17;;;;;;;2.39;100.00;101165.03;5011309;28;20044;-68
2021/01/11 04:23:42;;;;;;;32.33;11.73;;;;;;;2.40;100.00;101169.38;5023537;28;20044;-68
2021/01/11 04:26:08;;;;;;;33.90;12.97;;;;;;;2.43;100.00;101168.66;5021199;28;20137;-67
2021/01/11 04:28:34;;;;;;;37.90;13.50;;;;;;;2.38;100.00;101167.56;5016753;28;20108;-68
2021/01/11 04:30:59;;;;;;;29.97;12.17;;;;;;;2.37;100.00;101171.84;5018516;28;20728;-68
2021/01/11 04:33:25;;;;;;;24.53;9.33;;;;;;;2.38;100.00;101173.59;5018239;28;20552;-68
2021/01/11 04:35:50;;;;;;;36.63;12.30;;;;;;;2.39;100.00;101174.47;5014910;28;20037;-68
2021/01/11 04:38:15;;;;;;;35.63;12.07;;;;;;;2.38;100.00;101168.44;5015952;28;20033;-68
2021/01/11 04:40:41;;;;;;;29.77;11.93;;;;;;;2.38;100.00;101173.59;5025080;28;20030;-67
2021/01/11 04:43:18;;;;;;;34.23;12.27;;;;;;;2.37;100.00;101173.53;5028279;28;20032;-68
2021/01/11 04:45:43;;;;;;;21.43;8.53;;;;;;;2.38;100.00;101175.31;5027996;28;20021;-67
2021/01/11 04:48:11;;;;;;;25.37;10.77;;;;;;;2.34;100.00;101180.34;5011353;28;20278;-68
2021/01/11 04:50:37;;;;;;;34.10;12.47;;;;;;;2.33;100.00;101165.69;5018617;28;20079;-69
2021/01/11 04:53:10;;;;;;;38.77;14.27;;;;;;;2.31;100.00;101162.16;5011592;28;20280;-68
2021/01/11 04:55:37;;;;;;;29.93;11.97;;;;;;;2.31;100.00;101167.31;5023330;28;20025;-67
2021/01/11 04:58:07;;;;;;;25.00;10.93;;;;;;;2.30;100.00;101173.31;5027224;28;20291;-68
2021/01/11 05:00:33;;;;;;;25.33;9.73;;;;;;;2.30;100.00;101160.41;5023418;28;20317;-67
2021/01/11 05:03:01;;;;;;;32.30;12.37;;;;;;;2.31;100.00;101164.75;5027949;28;20268;-67
2021/01/11 05:05:28;;;;;;;30.83;11.43;;;;;;;2.31;100.00;101164.75;5016618;28;20272;-67
2021/01/11 05:07:54;;;;;;;39.87;14.60;;;;;;;2.28;100.00;101167.16;5030258;28;20298;-67
2021/01/11 05:10:21;;;;;;;29.80;10.57;;;;;;;2.30;100.00;101160.41;5022227;28;20276;-68
2021/01/11 05:12:57;;;;;;;30.63;11.90;;;;;;;2.28;100.00;101156.84;5012980;28;20044;-68
2021/01/11 05:15:27;;;;;;;37.87;13.33;;;;;;;2.27;100.00;101152.50;5020864;28;20280;-70
2021/01/11 05:17:53;;;;;;;28.83;11.87;;;;;;;2.25;100.00;101150.69;5029930;28;20295;-69
2021/01/11 05:20:21;;;;;;;16.50;7.63;;;;;;;2.29;100.00;101137.97;5016199;28;20288;-69
2021/01/11 05:22:47;;;;;;;20.53;8.17;;;;;;;2.25;100.00;101130.91;5014498;28;20322;-67
2021/01/11 05:25:21;;;;;;;28.07;11.73;;;;;;;2.22;100.00;101135.09;5016329;28;20338;-67
2021/01/11 05:28:02;;;;;;;27.07;10.57;;;;;;;2.21;100.00;101141.94;5010999;28;20037;-68
2021/01/11 05:30:34;;;;;;;28.33;11.43;;;;;;;2.21;100.00;101129.03;5026821;28;20306;-69
2021/01/11 05:33:00;;;;;;;32.30;11.32;;;;;;;2.16;100.00;101146.00;5024015;28;20305;-68
2021/01/11 05:35:26;;;;;;;28.57;11.83;;;;;;;2.13;100.00;101145.88;5021412;28;20034;-68
2021/01/11 05:37:54;;;;;;;33.80;11.97;;;;;;;2.13;100.00;101139.84;5012601;28;20041;-69
2021/01/11 05:40:21;;;;;;;34.73;12.23;;;;;;;2.10;100.00;101130.28;5026410;28;20287;-67
2021/01/11 05:42:56;;;;;;;29.40;11.50;;;;;;;2.09;100.00;101128.53;5019509;28;20272;-67
2021/01/11 05:45:23;;;;;;;23.10;9.53;;;;;;;2.10;100.00;101119.97;5019330;28;20280;-68
2021/01/11 05:48:03;;;;;;;29.47;11.77;;;;;;;2.08;100.00;101113.88;5026202;28;20307;-67
2021/01/11 05:50:31;;;;;;;23.23;8.73;;;;;;;2.10;100.00;101119.09;5016816;28;20739;-69
2021/01/11 05:52:57;;;;;;;28.90;10.60;;;;;;;2.06;100.00;101123.25;5013469;28;20738;-67
2021/01/11 05:55:25;;;;;;;25.00;9.47;;;;;;;2.04;100.00;101115.41;5022213;28;20288;-68
2021/01/11 05:57:54;;;;;;;29.87;11.93;;;;;;;2.01;100.00;101102.41;5017028;28;20030;-68
2021/01/11 06:00:46;;;;;;;22.90;9.10;;;;;;;2.00;100.00;101107.50;5019978;28;20277;-67
2021/01/11 06:03:12;;;;;;;20.23;8.03;;;;;;;2.01;100.00;101109.25;5009167;28;20288;-67
2021/01/11 06:05:39;;;;;;;28.77;10.97;;;;;;;1.98;100.00;101115.16;5013138;28;20335;-67
2021/01/11 06:08:06;;;;;;;28.27;11.00;;;;;;;1.97;100.00;101117.69;5013254;28;20415;-68
2021/01/11 06:10:32;;;;;;;23.40;9.57;;;;;;;1.99;100.00;101126.38;5020466;28;20699;-68
2021/01/11 06:12:57;;;;;;;37.03;13.00;;;;;;;1.97;100.00;101128.00;5030496;28;20279;-67
2021/01/11 06:15:25;;;;;;;25.67;10.53;;;;;;;1.94;100.00;101114.94;5027900;28;20104;-67
2021/01/11 06:17:52;;;;;;;42.00;15.30;;;;;;;1.94;100.00;101127.84;5022676;28;20025;-67
2021/01/11 06:20:22;;;;;;;36.30;12.87;;;;;;;1.92;100.00;101116.59;5028779;28;20297;-68
2021/01/11 06:22:51;;;;;;;35.90;12.70;;;;;;;1.95;100.00;101116.75;5021150;28;20280;-66
2021/01/11 06:25:26;;;;;;;37.27;13.20;;;;;;;1.97;100.00;101115.13;5031220;28;20288;-68
2021/01/11 06:28:08;;;;;;;34.73;12.20;;;;;;;1.95;100.00;101104.72;5026395;28;20288;-67
2021/01/11 06:30:34;;;;;;;24.10;9.07;;;;;;;1.97;100.00;101112.53;5021319;28;20419;-68
2021/01/11 06:33:04;;;;;;;38.10;12.97;;;;;;;1.95;100.00;101114.16;5014233;28;20152;-69
2021/01/11 06:35:32;;;;;;;40.67;11.87;;;;;;;1.94;100.00;101112.38;5014438;28;20033;-68
2021/01/11 06:38:09;;;;;;;29.63;11.50;;;;;;;1.96;100.00;101116.81;5013847;28;20356;-67
2021/01/11 06:40:34;;;;;;;36.90;12.27;;;;;;;1.95;100.00;101114.16;5021072;28;20283;-67
2021/01/11 06:43:02;;;;;;;34.30;11.37;;;;;;;1.96;100.00;101110.78;5020628;28;20280;-67
2021/01/11 06:45:34;;;;;;;28.50;10.37;;;;;;;1.97;100.00;101118.56;5019993;28;20032;-68
2021/01/11 06:48:19;;;;;;;29.13;8.90;;;;;;;1.99;100.00;101116.06;5033326;28;20639;-68
2021/01/11 06:50:47;;;;;;;19.07;7.33;;;;;;;1.96;100.00;101121.97;5030863;28;20037;-67
2021/01/11 06:53:14;;;;;;;33.60;12.27;;;;;;;1.97;100.00;101115.13;5017384;28;20867;-67
2021/01/11 06:55:39;;;;;;;27.07;8.33;;;;;;;1.94;100.00;101115.88;5029952;28;20430;-68
2021/01/11 06:58:05;;;;;;;30.77;11.63;;;;;;;1.91;100.00;101107.97;5030977;28;20366;-67
2021/01/11 07:00:36;;;;;;;38.90;12.57;;;;;;;1.94;100.00;101112.38;5032938;28;20300;-68
2021/01/11 07:03:04;;;;;;;27.93;9.47;;;;;;;1.95;100.00;101107.31;5030283;28;20303;-69
2021/01/11 07:05:33;;;;;;;22.47;7.17;;;;;;;1.96;100.00;101101.34;5032152;28;20276;-68
2021/01/11 07:08:09;;;;;;;31.03;10.97;;;;;;;1.93;100.00;101097.72;5031846;28;20271;-67
2021/01/11 07:10:36;;;;;;;24.17;8.57;;;;;;;1.97;100.00;101091.91;5018068;28;20671;-67
2021/01/11 07:13:16;;;;;;;23.23;8.27;;;;;;;1.95;100.00;101090.97;5021559;28;20743;-67
2021/01/11 07:15:42;;;;;;;29.33;9.07;;;;;;;1.95;100.00;101096.13;5023488;28;20363;-67
2021/01/11 07:18:08;;;;;;;21.67;9.27;;;;;;;1.96;100.00;101103.03;5015011;28;20382;-67
2021/01/11 07:20:41;;;;;;;28.97;9.53;;;;;;;1.93;100.00;101100.31;5015951;28;20504;-67
2021/01/11 07:23:09;;;;;;;34.07;10.67;;;;;;;1.92;100.00;101094.25;5023023;28;20046;-67
2021/01/11 07:25:36;;;;;;;27.40;8.57;;;;;;;1.90;100.00;101070.13;5032559;28;20268;-67
2021/01/11 07:28:03;;;;;;;31.70;10.93;;;;;;;1.90;100.00;101074.41;5035693;28;20317;-68
2021/01/11 07:30:33;;;;;;;26.23;8.63;;;;;;;1.88;100.00;101056.28;5032965;28;20794;-67
2021/01/11 07:32:59;;;;;;;20.03;7.07;;;;;;;1.88;100.00;101065.72;5023917;28;20387;-67
2021/01/11 07:35:25;;;;;;;38.63;10.70;;;;;;;1.83;100.00;101077.53;5026608;28;20386;-67
2021/01/11 07:37:50;;;;;;;21.07;8.30;;;;;;;1.82;100.00;101060.28;5023463;28;20037;-68
2021/01/11 07:40:16;;;;;;;20.50;6.53;;;;;;;1.81;100.00;101061.09;5030179;28;20038;-67
2021/01/11 07:42:42;;;;;;;38.00;10.67;;;;;;;1.77;100.00;101068.72;5018723;28;20041;-67
2021/01/11 07:45:09;;;;;;;23.60;7.83;;;;;;;1.76;100.00;101056.66;5012195;28;20308;-67
2021/01/11 07:47:35;;;;;;;32.30;8.80;;;;;;;1.77;100.00;101053.25;5014981;28;20080;-67
2021/01/11 07:50:00;;;;;;;23.03;7.50;;;;;;;1.75;100.00;101039.41;5012288;28;20760;-68
2021/01/11 07:52:26;;;;;;;27.03;8.97;;;;;;;1.73;100.00;101038.47;5012004;28;20386;-68
2021/01/11 07:54:59;;;;;;;23.93;7.83;;;;;;;1.68;100.00;101042.53;5013200;28;20030;-69
2021/01/11 07:57:27;;;;;;;24.10;8.17;;;;;;;1.65;100.00;101042.41;5024992;28;20029;-68
2021/01/11 08:00:04;;;;;;;23.17;8.33;;;;;;;1.63;100.00;101049.22;5031738;28;20333;-69
2021/01/11 08:02:30;;;;;;;11.70;5.50;;;;;;;1.61;100.00;101056.00;5021944;28;20271;-68
2021/01/11 08:04:56;;;;;;;22.17;7.13;;;;;;;1.59;100.00;101062.78;5011686;28;20265;-69
2021/01/11 08:07:35;;;;;;;26.10;8.40;;;;;;;1.59;100.00;101057.63;5029009;28;20805;-68
2021/01/11 08:10:00;;;;;;;19.27;6.70;;;;;;;1.61;100.00;101062.84;5028467;28;20029;-69
2021/01/11 08:12:28;;;;;;;19.70;6.80;;;;;;;1.60;100.00;101072.28;5031192;28;20751;-67
2021/01/11 08:15:02;;;;;;;16.53;6.70;;;;;;;1.58;100.00;101067.88;5026104;28;20025;-67
2021/01/11 08:17:30;;;;;;;18.00;6.10;;;;;;;1.54;100.00;101059.13;5031593;28;20755;-67
2021/01/11 08:19:58;;;;;;;22.40;7.23;;;;;;;1.54;100.00;101065.97;5026525;28;20351;-68
2021/01/11 08:22:25;;;;;;;20.23;6.07;;;;;;;1.53;100.00;101067.66;5015422;28;20613;-68
2021/01/11 08:24:52;;;;;;;25.90;7.93;;;;;;;1.52;100.00;101070.16;5027012;28;20905;-68
2021/01/11 08:27:31;;;;;;;15.97;6.07;;;;;;;1.49;100.00;101058.03;5023221;28;20310;-69
2021/01/11 08:30:01;;;;;;;20.10;7.43;;;;;;;1.49;100.00;101073.50;5026478;28;20285;-68
2021/01/11 08:32:27;;;;;;;18.27;6.83;;;;;;;1.47;100.00;101064.84;5028661;28;20303;-67
2021/01/11 08:34:53;;;;;;;15.87;6.37;;;;;;;1.51;100.00;101059.00;5025404;28;20664;-69
2021/01/11 08:37:27;;;;;;;17.23;6.63;;;;;;;1.49;100.00;101055.47;5039666;28;20278;-68
2021/01/11 08:39:55;;;;;;;24.47;6.63;;;;;;;1.47;100.00;101067.41;5049811;28;20029;-67
2021/01/11 08:42:21;;;;;;;23.13;7.97;;;;;;;1.47;100.00;101062.25;5030341;28;20359;-69
2021/01/11 08:44:47;;;;;;;21.10;6.47;;;;;;;1.46;100.00;101065.66;5030690;28;20374;-68
2021/01/11 08:47:12;;;;;;;15.50;5.67;;;;;;;1.49;100.00;101070.94;5030650;28;20029;-67
2021/01/11 08:49:59;;;;;;;22.10;6.73;;;;;;;1.47;100.00;101082.88;5031559;28;20025;-68
2021/01/11 08:52:33;;;;;;;18.63;6.27;;;;;;;1.47;100.00;101067.41;5011102;28;20120;-68
2021/01/11 08:55:09;;;;;;;18.17;5.90;;;;;;;1.49;100.00;101068.34;5011136;28;20349;-67
2021/01/11 08:57:35;;;;;;;17.67;6.40;;;;;;;1.47;100.00;101067.41;5024053;28;20268;-67
2021/01/11 09:00:16;;;;;;;23.73;7.27;;;;;;;1.46;100.00;101071.69;5030791;28;20270;-67
2021/01/11 09:02:46;;;;;;;22.07;7.60;;;;;;;1.48;100.00;101061.44;5029693;28;20017;-68
2021/01/11 09:05:18;;;;;;;15.47;5.80;;;;;;;1.46;100.00;101061.38;5030969;28;21036;-67
2021/01/11 09:07:44;;;;;;;;;;;;;;;1.45;100.00;101059.63;5024823;28;20289;-69
2021/01/11 09:10:36;;;;;;;23.03;7.47;;;;;;;1.44;100.00;101056.94;5011164;28;20303;-69
2021/01/11 09:13:20;;;;;;;13.10;4.67;;;;;;;1.48;100.00;101053.72;5010734;28;20283;-67
2021/01/11 09:15:46;;;;;;;19.63;7.83;;;;;;;1.46;100.00;101045.91;5011037;28;20688;-70
2021/01/11 09:18:13;;;;;;;23.07;7.23;;;;;;;1.49;100.00;101034.84;5010862;28;20368;-67
2021/01/11 09:20:40;;;;;;;17.17;5.57;;;;;;;1.48;100.00;101035.66;5010694;28;20030;-69
2021/01/11 09:23:06;;;;;;;27.37;8.80;;;;;;;1.51;100.00;101037.50;5010448;28;20363;-68
2021/01/11 09:25:35;;;;;;;21.27;7.03;;;;;;;1.53;100.00;101033.28;5010352;28;20359;-70
2021/01/11 09:28:03;;;;;;;18.30;6.70;;;;;;;1.51;100.00;101033.22;5010762;28;20029;-68
2021/01/11 09:30:29;;;;;;;27.60;8.90;;;;;;;1.54;100.00;101042.78;5014540;28;20269;-68
2021/01/11 09:32:55;;;;;;;26.97;8.63;;;;;;;1.57;100.00;101038.63;5010519;28;20269;-68
2021/01/11 09:35:21;;;;;;;20.07;6.87;;;;;;;1.57;100.00;101038.63;5010518;28;20519;-68
2021/01/11 09:37:46;;;;;;;17.50;6.93;;;;;;;1.63;100.00;101038.03;5010848;28;20026;-70
2021/01/11 09:40:12;;;;;;;25.90;8.20;;;;;;;1.62;100.00;101044.88;5010596;28;20059;-69
2021/01/11 09:42:38;;;;;;;26.33;8.13;;;;;;;1.66;100.00;101043.28;5010410;28;20026;-68
2021/01/11 09:45:05;;;;;;;24.40;7.97;;;;;;;1.68;100.00;101037.38;5021954;28;20029;-69
2021/01/11 09:47:30;;;;;;;24.07;8.17;;;;;;;1.69;100.00;101034.00;5009807;28;20029;-68
2021/01/11 09:49:56;;;;;;;21.33;7.23;;;;;;;1.72;100.00;101018.69;5010489;28;20340;-67
2021/01/11 09:52:22;;;;;;;21.93;8.37;;;;;;;1.74;100.00;101019.63;5010024;28;20028;-68
2021/01/11 09:54:48;;;;;;;18.13;7.47;;;;;;;1.77;100.00;101024.91;5010259;28;20440;-67
2021/01/11 09:57:13;;;;;;;25.23;7.63;;;;;;;1.76;100.00;101027.41;5012359;28;20360;-68
2021/01/11 09:59:39;;;;;;;32.03;10.37;;;;;;;1.77;100.00;101021.44;5020472;28;20108;-70
2021/01/11 10:02:07;;;;;;;18.63;7.57;;;;;;;1.81;100.00;101027.59;5010226;28;20101;-68
2021/01/11 10:04:32;;;;;;;13.70;6.10;;;;;;;1.82;100.00;101019.94;5009580;28;20285;-69
2021/01/11 10:06:58;;;;;;;28.73;11.53;;;;;;;1.80;100.00;101021.56;5009929;28;20261;-68
2021/01/11 10:09:26;;;;;;;32.23;9.93;;;;;;;1.77;100.00;101022.31;5010355;28;20030;-68
2021/01/11 10:11:56;;;;;;;24.87;8.43;;;;;;;1.77;100.00;101005.97;5009975;28;20181;-68
2021/01/11 10:14:22;;;;;;;16.53;7.47;;;;;;;1.83;100.00;101015.66;5010061;28;20304;-68
2021/01/11 10:16:50;;;;;;;34.17;11.83;;;;;;;1.83;100.00;101020.81;5009903;28;20355;-68
2021/01/11 10:19:18;;;;;;;32.60;11.77;;;;;;;1.85;100.00;101008.88;5009791;28;20022;-68
2021/01/11 10:21:44;;;;;;;19.23;7.83;;;;;;;1.88;100.00;101001.25;5009617;28;20293;-67
2021/01/11 10:24:11;;;;;;;28.90;8.23;;;;;;;1.88;100.00;101001.25;5009545;28;20779;-69
2021/01/11 10:26:40;;;;;;;20.43;8.23;;;;;;;1.91;100.00;101001.38;5015590;28;20052;-69
2021/01/11 10:29:05;;;;;;;29.60;11.03;;;;;;;1.91;100.00;101004.84;5029005;28;20786;-68
2021/01/11 10:31:31;;;;;;;26.57;9.67;;;;;;;1.93;100.00;100992.00;5028709;28;20284;-68
2021/01/11 10:33:56;;;;;;;30.00;10.13;;;;;;;1.95;100.00;100985.22;5027172;28;20036;-69
2021/01/11 10:36:21;;;;;;;25.47;9.23;;;;;;;1.95;100.00;100985.22;5017353;28;20034;-66
2021/01/11 10:38:47;;;;;;;33.40;11.70;;;;;;;1.95;100.00;100985.22;5009702;28;20063;-67
2021/01/11 10:41:18;;;;;;;27.13;10.87;;;;;;;1.96;100.00;100981.84;5009714;28;20033;-68
2021/01/11 10:43:44;;;;;;;25.87;9.17;;;;;;;2.01;100.00;100964.84;5008771;28;20110;-68
2021/01/11 10:46:11;;;;;;;26.00;10.13;;;;;;;2.01;100.00;100970.00;5009311;28;20276;-68
2021/01/11 10:48:40;;;;;;;26.57;10.90;;;;;;;2.06;100.00;100958.19;5007852;28;20268;-68
2021/01/11 10:51:10;;;;;;;20.03;8.67;;;;;;;2.05;100.00;100966.72;5009823;28;20285;-68
2021/01/11 10:53:37;;;;;;;32.37;10.30;;;;;;;2.02;100.00;100964.00;5009656;28;20273;-68
2021/01/11 10:56:02;;;;;;;27.53;9.63;;;;;;;2.05;100.00;100962.44;5009918;28;20287;-68
2021/01/11 10:58:28;;;;;;;24.77;9.23;;;;;;;2.04;100.00;100970.97;5023479;28;20285;-68
2021/01/11 11:00:53;;;;;;;31.07;10.47;;;;;;;2.07;100.00;100965.09;5012641;28;20020;-66
2021/01/11 11:03:18;;;;;;;27.60;8.83;;;;;;;2.07;100.00;100962.53;5012557;28;20041;-67
2021/01/11 11:05:44;;;;;;;25.30;9.47;;;;;;;2.12;100.00;100954.94;5012298;28;20035;-68
2021/01/11 11:08:09;;;;;;;26.57;9.77;;;;;;;2.13;100.00;100955.00;5012492;28;20026;-68
2021/01/11 11:10:35;;;;;;;19.83;8.63;;;;;;;2.21;100.00;100947.56;5012720;28;20441;-66
2021/01/11 11:13:05;;;;;;;21.60;7.20;;;;;;;2.18;100.00;100945.78;5012870;28;20025;-68
2021/01/11 11:15:31;;;;;;;23.17;8.57;;;;;;;2.16;100.00;100942.22;5012584;28;20037;-68
2021/01/11 11:17:56;;;;;;;16.23;6.60;;;;;;;2.21;100.00;100937.25;5012332;28;20332;-68